Time;durP1;ratioP1;P1;durP2;ratioP2;P2;SDS_P1;SDS_P2;PMS_P1;PMS_P2;Temp;Humidity;BMP_temperature;BMP_pressure;BME280_temperature;BME280_humidity;BME280_pressure;Samples;Min_cycle;Max_cycle;Signal;HPM_P1;HPM_P2
2023/03/03 00:01:18;;;;;;;42.10;30.30;;;5.00;99.90;;;;;;4974412;28;20176;-73
2023/03/03 00:03:43;;;;;;;38.70;28.63;;;5.00;99.90;;;;;;4984815;28;20220;-72
2023/03/03 00:06:12;;;;;;;40.93;31.03;;;4.90;99.90;;;;;;4985146;28;21111;-73
2023/03/03 00:08:39;;;;;;;40.53;29.43;;;5.00;99.90;;;;;;4984680;28;20180;-72
2023/03/03 00:11:06;;;;;;;34.80;27.13;;;4.90;99.90;;;;;;4985154;28;20420;-73
2023/03/03 00:13:39;;;;;;;36.97;27.00;;;4.80;99.90;;;;;;4984561;28;20514;-71
2023/03/03 00:16:30;;;;;;;40.93;30.50;;;4.80;99.90;;;;;;4984307;28;20766;-73
2023/03/03 00:18:57;;;;;;;42.10;27.80;;;4.80;99.90;;;;;;4984880;28;20763;-72
2023/03/03 00:21:43;;;;;;;38.20;29.27;;;4.80;99.90;;;;;;4984561;28;20696;-72
2023/03/03 00:24:24;;;;;;;40.10;29.90;;;4.80;99.90;;;;;;4967411;28;20526;-71
2023/03/03 00:26:55;;;;;;;40.03;29.33;;;4.60;99.90;;;;;;4967026;28;20970;-71
2023/03/03 00:29:38;;;;;;;40.77;29.63;;;4.40;99.90;;;;;;4984225;28;20420;-72
2023/03/03 00:32:16;;;;;;;46.20;30.13;;;4.30;99.90;;;;;;4984788;28;20428;-73
2023/03/03 00:34:42;;;;;;;42.83;31.30;;;4.20;99.90;;;;;;4984468;28;20881;-73
2023/03/03 00:37:34;;;;;;;48.00;33.20;;;4.20;99.90;;;;;;4984409;28;21266;-72
2023/03/03 00:40:23;;;;;;;38.53;29.47;;;4.00;99.90;;;;;;4980502;28;20919;-72
2023/03/03 00:42:52;;;;;;;42.57;30.13;;;4.00;99.90;;;;;;4984295;28;20420;-71
2023/03/03 00:45:33;;;;;;;44.10;30.07;;;4.10;99.90;;;;;;4983989;28;20414;-73
2023/03/03 00:48:08;;;;;;;42.57;30.67;;;4.10;99.90;;;;;;4984283;28;20435;-73
2023/03/03 00:50:35;;;;;;;44.17;32.50;;;4.10;99.90;;;;;;4984214;28;20418;-71
2023/03/03 00:53:18;;;;;;;45.07;31.87;;;4.00;99.90;;;;;;4984360;28;20404;-73
2023/03/03 00:55:45;;;;;;;46.70;33.37;;;3.90;99.90;;;;;;4966684;28;20422;-71
2023/03/03 00:58:11;;;;;;;44.00;31.40;;;3.90;99.90;;;;;;4983957;28;20435;-73
2023/03/03 01:00:37;;;;;;;39.83;29.50;;;4.00;99.90;;;;;;4983903;28;20980;-72
2023/03/03 01:03:08;;;;;;;44.70;30.70;;;3.90;99.90;;;;;;4966554;28;20180;-71
2023/03/03 01:05:35;;;;;;;45.93;32.93;;;3.90;99.90;;;;;;4984048;28;20487;-72
2023/03/03 01:08:02;;;;;;;49.67;33.30;;;3.90;99.90;;;;;;4984289;28;20470;-72
2023/03/03 01:10:31;;;;;;;44.17;31.50;;;3.90;99.90;;;;;;4983940;28;20422;-71
2023/03/03 01:12:57;;;;;;;44.83;34.50;;;3.90;99.90;;;;;;4983710;28;21070;-71
2023/03/03 01:15:22;;;;;;;51.00;33.30;;;3.70;99.90;;;;;;4983893;28;20455;-73
2023/03/03 01:17:48;;;;;;;43.03;30.20;;;3.70;99.90;;;;;;4983813;28;20435;-74
2023/03/03 01:20:15;;;;;;;48.13;34.00;;;3.70;99.90;;;;;;4986953;28;20172;-74
2023/03/03 01:22:41;;;;;;;47.63;31.00;;;3.70;99.90;;;;;;4988456;28;20416;-74
2023/03/03 01:25:07;;;;;;;46.90;31.30;;;3.70;99.90;;;;;;4988357;28;20469;-72
2023/03/03 01:27:34;;;;;;;42.20;30.20;;;3.60;99.90;;;;;;4987723;28;20432;-74
2023/03/03 01:29:59;;;;;;;45.30;33.27;;;3.60;99.90;;;;;;4987570;28;20791;-72
2023/03/03 01:32:26;;;;;;;45.80;32.97;;;3.60;99.90;;;;;;4987900;28;20423;-74
2023/03/03 01:34:52;;;;;;;41.30;30.13;;;3.70;99.90;;;;;;4987856;28;20200;-72
2023/03/03 01:37:18;;;;;;;44.13;32.43;;;3.60;99.90;;;;;;4987624;28;21206;-72
2023/03/03 01:39:50;;;;;;;44.57;33.20;;;3.60;99.90;;;;;;4986211;28;20478;-73
2023/03/03 01:42:17;;;;;;;51.67;33.73;;;3.60;99.90;;;;;;4987632;28;20462;-71
2023/03/03 01:44:43;;;;;;;43.60;32.27;;;3.70;99.90;;;;;;4969764;28;20482;-73
2023/03/03 01:47:11;;;;;;;46.60;31.90;;;3.70;99.90;;;;;;4969852;28;20439;-71
2023/03/03 01:49:51;;;;;;;49.30;32.03;;;3.50;99.90;;;;;;4970085;28;20437;-71
2023/03/03 01:52:32;;;;;;;44.03;31.70;;;3.50;99.90;;;;;;4987736;28;20415;-71
2023/03/03 01:55:03;;;;;;;48.07;30.30;;;3.50;99.90;;;;;;4986902;28;20486;-73
2023/03/03 01:57:37;;;;;;;44.47;29.27;;;3.50;99.90;;;;;;4987023;28;20654;-72
2023/03/03 02:00:04;;;;;;;47.37;31.63;;;3.40;99.90;;;;;;4987181;28;20412;-72
2023/03/03 02:02:31;;;;;;;47.47;32.60;;;3.40;99.90;;;;;;4987110;28;20470;-73
2023/03/03 02:04:57;;;;;;;47.50;31.80;;;3.30;99.90;;;;;;4987249;28;20456;-71
2023/03/03 02:07:26;;;;;;;49.10;32.43;;;3.30;99.90;;;;;;4987278;28;20868;-72
2023/03/03 02:10:16;;;;;;;52.53;34.33;;;3.40;99.90;;;;;;4986897;28;20195;-73
2023/03/03 02:12:52;;;;;;;50.60;30.83;;;3.30;99.90;;;;;;4987042;28;20954;-73
2023/03/03 02:15:24;;;;;;;47.07;31.97;;;3.20;99.90;;;;;;4986742;28;20692;-72
2023/03/03 02:17:54;;;;;;;52.13;34.70;;;3.20;99.90;;;;;;4986900;28;20415;-73
2023/03/03 02:20:36;;;;;;;53.07;35.27;;;3.30;99.90;;;;;;4986995;28;20418;-71
2023/03/03 02:23:56;;;;;;;47.47;31.70;;;3.30;99.90;;;;;;4983555;28;20424;-73
2023/03/03 02:26:25;;;;;;;51.80;32.50;;;3.30;99.90;;;;;;4907366;29;21036;-72
2023/03/03 02:28:51;;;;;;;52.80;32.43;;;3.30;99.90;;;;;;4971377;28;20427;-73
2023/03/03 02:31:20;;;;;;;49.47;34.30;;;3.20;99.90;;;;;;4974364;28;20466;-73
2023/03/03 02:33:48;;;;;;;49.73;32.53;;;3.20;99.90;;;;;;4986677;28;20465;-72
2023/03/03 02:36:25;;;;;;;55.57;34.87;;;3.20;99.90;;;;;;4986290;28;20495;-71
2023/03/03 02:39:03;;;;;;;49.80;32.77;;;3.30;99.90;;;;;;4986967;28;20411;-72
2023/03/03 02:41:47;;;;;;;45.63;30.87;;;3.30;99.90;;;;;;4986986;28;20392;-73
2023/03/03 02:44:15;;;;;;;48.70;32.50;;;3.30;99.90;;;;;;4986350;28;20407;-72
2023/03/03 02:46:46;;;;;;;45.37;32.40;;;3.20;99.90;;;;;;4985956;28;20443;-71
2023/03/03 02:49:15;;;;;;;45.57;31.00;;;3.20;99.90;;;;;;4986046;28;20434;-71
2023/03/03 02:51:41;;;;;;;45.87;30.50;;;3.30;99.90;;;;;;4968798;28;20451;-72
2023/03/03 02:54:07;;;;;;;51.20;35.80;;;3.40;99.90;;;;;;4986498;28;20452;-73
2023/03/03 02:56:33;;;;;;;48.30;33.83;;;3.40;99.90;;;;;;4986044;28;20444;-73
2023/03/03 02:58:59;;;;;;;54.77;34.60;;;3.50;99.90;;;;;;4986418;28;21015;-73
2023/03/03 03:01:25;;;;;;;49.83;34.40;;;3.60;99.90;;;;;;4984378;28;20783;-73
2023/03/03 03:03:50;;;;;;;49.30;32.60;;;3.70;99.90;;;;;;4986108;28;20180;-72
2023/03/03 03:06:16;;;;;;;51.23;34.37;;;3.80;99.90;;;;;;4986047;28;20251;-72
2023/03/03 03:08:42;;;;;;;50.87;32.27;;;3.90;99.90;;;;;;4986200;28;20209;-71
2023/03/03 03:11:07;;;;;;;54.97;34.73;;;3.90;99.90;;;;;;4985962;28;20243;-72
2023/03/03 03:13:33;;;;;;;56.83;35.70;;;4.00;99.90;;;;;;4985813;28;20374;-71
2023/03/03 03:15:59;;;;;;;46.40;31.23;;;4.10;99.90;;;;;;4985817;28;20180;-73
2023/03/03 03:18:26;;;;;;;47.67;31.90;;;4.30;99.90;;;;;;4985538;28;20888;-70
2023/03/03 03:20:52;;;;;;;55.70;36.60;;;4.30;99.90;;;;;;4985900;28;20918;-72
2023/03/03 03:23:20;;;;;;;50.50;33.80;;;4.30;99.90;;;;;;4968430;28;20466;-72
2023/03/03 03:25:46;;;;;;;51.00;34.97;;;4.40;99.90;;;;;;4985626;28;21013;-72
2023/03/03 03:28:13;;;;;;;51.90;35.13;;;4.50;99.90;;;;;;4985752;28;20934;-72
2023/03/03 03:30:40;;;;;;;50.60;35.30;;;4.60;99.90;;;;;;4985408;28;20438;-73
2023/03/03 03:33:06;;;;;;;46.00;33.40;;;4.60;99.90;;;;;;4985273;28;20497;-71
2023/03/03 03:35:33;;;;;;;48.67;31.03;;;4.70;99.90;;;;;;4985637;28;20416;-73
2023/03/03 03:37:58;;;;;;;46.70;33.27;;;4.80;99.90;;;;;;4985144;28;20460;-73
2023/03/03 03:40:25;;;;;;;50.00;32.37;;;4.80;99.90;;;;;;4985538;28;20414;-73
2023/03/03 03:42:51;;;;;;;49.47;33.50;;;4.90;99.90;;;;;;4966802;28;20303;-73
2023/03/03 03:45:17;;;;;;;52.97;36.63;;;5.00;99.90;;;;;;4985062;28;20423;-70
2023/03/03 03:47:43;;;;;;;46.80;32.30;;;5.00;99.90;;;;;;4984739;28;20439;-72
2023/03/03 03:50:10;;;;;;;53.20;36.57;;;5.00;99.90;;;;;;4985218;28;20176;-71
2023/03/03 03:52:38;;;;;;;48.23;31.63;;;5.10;99.90;;;;;;4985996;28;20627;-73
2023/03/03 03:55:04;;;;;;;48.33;32.70;;;5.10;99.90;;;;;;4985350;28;20855;-74
2023/03/03 03:57:30;;;;;;;46.77;31.87;;;5.10;99.90;;;;;;4974357;28;20432;-71
2023/03/03 03:59:55;;;;;;;44.00;33.23;;;5.10;99.90;;;;;;4983669;28;20430;-73
2023/03/03 04:02:21;;;;;;;51.93;34.43;;;5.10;99.90;;;;;;4984731;28;20180;-73
2023/03/03 04:04:47;;;;;;;46.03;33.00;;;5.20;99.90;;;;;;4985554;28;20181;-73
2023/03/03 04:07:12;;;;;;;50.13;35.07;;;5.20;99.90;;;;;;4985501;28;20209;-73
2023/03/03 04:09:38;;;;;;;53.23;35.43;;;5.30;99.90;;;;;;4985216;28;20195;-72
2023/03/03 04:12:04;;;;;;;49.70;34.97;;;5.30;99.90;;;;;;4985081;28;20271;-73
2023/03/03 04:14:29;;;;;;;41.60;30.13;;;5.30;99.90;;;;;;4985090;28;20215;-71
2023/03/03 04:16:55;;;;;;;48.97;33.40;;;5.30;99.90;;;;;;4985020;28;20248;-73
2023/03/03 04:19:21;;;;;;;52.17;36.67;;;5.40;99.90;;;;;;4969002;28;20191;-73
2023/03/03 04:21:47;;;;;;;49.87;36.37;;;5.30;99.90;;;;;;4985055;28;20196;-73
2023/03/03 04:24:12;;;;;;;50.83;34.80;;;5.40;99.90;;;;;;4984920;28;20423;-70
2023/03/03 04:26:38;;;;;;;49.23;34.47;;;5.50;99.90;;;;;;4973753;28;20315;-73
2023/03/03 04:29:04;;;;;;;50.60;34.17;;;5.50;99.90;;;;;;4985202;28;20176;-72
2023/03/03 04:31:30;;;;;;;49.63;33.87;;;5.50;99.90;;;;;;4977479;28;20188;-73
2023/03/03 04:33:55;;;;;;;56.87;34.20;;;5.50;99.90;;;;;;4984237;28;20192;-72
2023/03/03 04:36:21;;;;;;;54.53;37.40;;;5.60;99.90;;;;;;4984483;28;20479;-73
2023/03/03 04:38:48;;;;;;;50.90;35.80;;;5.60;99.90;;;;;;4984403;28;20243;-72
2023/03/03 04:41:13;;;;;;;46.47;34.00;;;5.60;99.90;;;;;;4971915;28;20496;-72
2023/03/03 04:43:39;;;;;;;50.70;34.83;;;5.70;99.90;;;;;;4984532;28;20451;-72
2023/03/03 04:46:04;;;;;;;47.90;35.37;;;5.70;99.90;;;;;;4984222;28;20504;-71
2023/03/03 04:48:30;;;;;;;47.50;34.67;;;5.50;99.90;;;;;;4984406;28;20180;-72
2023/03/03 04:50:56;;;;;;;57.20;38.37;;;5.50;99.90;;;;;;4966663;28;20562;-72
2023/03/03 04:53:22;;;;;;;48.53;34.53;;;5.60;99.90;;;;;;4984298;28;20201;-72
2023/03/03 04:55:50;;;;;;;52.27;35.30;;;5.70;99.90;;;;;;4984264;28;20188;-73
2023/03/03 04:58:18;;;;;;;55.30;36.53;;;5.60;99.90;;;;;;4984272;28;20408;-70
2023/03/03 05:00:44;;;;;;;54.80;37.10;;;5.40;99.90;;;;;;4984372;28;20416;-72
2023/03/03 05:03:11;;;;;;;53.30;35.27;;;5.50;99.90;;;;;;4984125;28;20564;-72
2023/03/03 05:05:37;;;;;;;52.27;35.77;;;5.60;99.90;;;;;;4984381;28;21340;-71
2023/03/03 05:08:03;;;;;;;55.47;38.47;;;5.30;99.90;;;;;;4984429;28;20526;-74
2023/03/03 05:10:28;;;;;;;55.57;36.40;;;5.20;99.90;;;;;;4984515;28;20533;-72
2023/03/03 05:12:54;;;;;;;54.03;35.07;;;5.30;99.90;;;;;;4967316;28;20659;-73
2023/03/03 05:15:20;;;;;;;50.10;35.03;;;5.20;99.90;;;;;;4984400;28;20223;-71
2023/03/03 05:17:45;;;;;;;51.13;36.17;;;5.20;99.90;;;;;;4984750;28;20196;-73
2023/03/03 05:20:12;;;;;;;51.63;36.90;;;5.00;99.90;;;;;;4984374;28;20922;-74
2023/03/03 05:22:38;;;;;;;49.17;34.63;;;5.00;99.90;;;;;;4975328;28;20427;-72
2023/03/03 05:25:04;;;;;;;53.20;34.77;;;4.90;99.90;;;;;;4984984;28;20914;-73
2023/03/03 05:27:30;;;;;;;52.30;34.40;;;5.00;99.90;;;;;;4982720;28;20681;-71
2023/03/03 05:29:55;;;;;;;55.73;34.07;;;5.10;99.90;;;;;;4984469;28;20446;-71
2023/03/03 05:32:21;;;;;;;51.27;34.23;;;5.10;99.90;;;;;;4983845;28;20192;-71
2023/03/03 05:34:47;;;;;;;54.03;34.63;;;5.30;99.90;;;;;;4983820;28;20444;-71
2023/03/03 05:37:14;;;;;;;47.83;35.00;;;5.20;99.90;;;;;;4983678;28;20221;-71
2023/03/03 05:39:39;;;;;;;52.70;34.20;;;5.20;99.90;;;;;;4984017;28;20204;-70
2023/03/03 05:42:05;;;;;;;50.40;35.17;;;5.40;99.90;;;;;;4983921;28;20473;-72
2023/03/03 05:44:30;;;;;;;49.07;32.77;;;5.50;99.90;;;;;;4983756;28;20185;-72
2023/03/03 05:46:57;;;;;;;50.17;33.03;;;5.50;99.90;;;;;;4983695;28;20200;-71
2023/03/03 05:49:23;;;;;;;48.50;32.40;;;5.50;99.90;;;;;;4983735;28;20211;-71
2023/03/03 05:51:49;;;;;;;42.13;31.30;;;5.30;99.90;;;;;;4983854;28;20422;-73
2023/03/03 05:54:14;;;;;;;46.17;33.60;;;5.40;99.90;;;;;;4975376;28;20485;-71
2023/03/03 05:56:40;;;;;;;47.97;32.67;;;5.30;99.90;;;;;;4983928;28;20292;-70
2023/03/03 05:59:05;;;;;;;43.13;31.00;;;5.40;99.90;;;;;;4983695;28;20208;-72
2023/03/03 06:01:31;;;;;;;45.00;30.93;;;5.20;99.90;;;;;;4983550;28;20201;-72
2023/03/03 06:03:57;;;;;;;43.37;31.20;;;4.90;99.90;;;;;;4983118;28;20172;-71
2023/03/03 06:06:22;;;;;;;46.20;31.23;;;4.90;99.90;;;;;;4979484;28;20558;-70
2023/03/03 06:08:48;;;;;;;46.43;32.07;;;4.90;99.90;;;;;;4987196;28;20185;-73
2023/03/03 06:11:15;;;;;;;64.67;46.07;;;4.80;99.90;;;;;;4987067;28;20468;-71
2023/03/03 06:13:41;;;;;;;67.60;47.13;;;4.90;99.90;;;;;;4987227;28;20200;-73
2023/03/03 06:16:07;;;;;;;714.83;387.27;;;5.00;99.90;;;;;;4986647;28;20422;-73
2023/03/03 06:18:32;;;;;;;213.97;121.57;;;5.20;99.90;;;;;;4987083;28;20791;-73
2023/03/03 06:20:58;;;;;;;52.67;39.40;;;5.20;99.90;;;;;;4969423;28;20185;-73
2023/03/03 06:23:23;;;;;;;50.50;38.20;;;5.20;99.90;;;;;;4986973;28;20615;-72
2023/03/03 06:25:49;;;;;;;46.67;32.97;;;5.00;99.90;;;;;;4984470;28;20192;-72
2023/03/03 06:28:15;;;;;;;47.30;33.10;;;4.80;99.90;;;;;;4986920;28;20216;-72
2023/03/03 06:30:40;;;;;;;44.30;29.30;;;4.80;99.90;;;;;;4986209;28;20196;-73
2023/03/03 06:33:06;;;;;;;34.23;27.27;;;4.70;99.90;;;;;;4986238;28;20192;-72
2023/03/03 06:35:31;;;;;;;41.23;28.60;;;4.90;99.90;;;;;;4981056;28;20200;-73
2023/03/03 06:37:57;;;;;;;36.67;27.97;;;5.00;99.90;;;;;;4977705;28;21208;-72
2023/03/03 06:40:22;;;;;;;37.60;27.57;;;5.00;99.90;;;;;;4980352;28;20181;-73
2023/03/03 06:42:48;;;;;;;43.57;26.80;;;4.90;99.90;;;;;;4984953;28;20272;-70
2023/03/03 06:45:14;;;;;;;41.67;28.83;;;4.80;99.90;;;;;;4984563;28;20243;-73
2023/03/03 06:47:40;;;;;;;40.57;28.43;;;4.60;99.90;;;;;;4986008;28;20255;-70
2023/03/03 06:50:08;;;;;;;40.87;26.80;;;4.70;99.90;;;;;;4986676;28;20420;-73
2023/03/03 06:52:34;;;;;;;41.13;28.77;;;5.00;99.90;;;;;;4986295;28;20425;-74
2023/03/03 06:55:08;;;;;;;40.90;28.80;;;5.10;99.90;;;;;;4985569;28;20451;-71
2023/03/03 06:57:34;;;;;;;42.73;30.30;;;4.90;99.90;;;;;;4986368;28;20239;-72
2023/03/03 07:00:19;;;;;;;38.43;28.40;;;5.20;99.90;;;;;;4985968;28;20445;-72
2023/03/03 07:02:46;;;;;;;36.00;25.53;;;5.20;99.90;;;;;;4986160;28;20558;-73
2023/03/03 07:05:15;;;;;;;34.07;25.97;;;5.00;99.90;;;;;;4984219;28;20442;-73
2023/03/03 07:07:41;;;;;;;37.73;26.73;;;4.90;99.90;;;;;;4985811;28;20506;-73
2023/03/03 07:10:19;;;;;;;40.33;29.67;;;5.00;99.90;;;;;;4985142;28;21106;-71
2023/03/03 07:12:44;;;;;;;41.10;29.73;;;5.10;99.90;;;;;;4996813;23;20220;-71
2023/03/03 07:15:22;;;;;;;37.30;25.70;;;5.30;99.90;;;;;;4994400;28;20507;-74
2023/03/03 07:17:51;;;;;;;43.23;29.00;;;5.60;99.90;;;;;;4997176;28;20553;-74
2023/03/03 07:20:22;;;;;;;38.47;28.77;;;5.50;99.90;;;;;;4992202;28;20416;-72
2023/03/03 07:22:48;;;;;;;37.57;26.77;;;5.50;99.90;;;;;;4984983;28;20436;-71
2023/03/03 07:25:34;;;;;;;43.23;30.43;;;5.50;99.90;;;;;;4984847;28;20435;-71
2023/03/03 07:28:13;;;;;;;41.67;29.27;;;5.60;99.90;;;;;;4985040;28;20180;-72
2023/03/03 07:30:41;;;;;;;39.17;28.20;;;5.70;99.90;;;;;;4984778;28;20951;-72
2023/03/03 07:33:22;;;;;;;39.73;27.10;;;5.70;99.90;;;;;;4985253;28;20523;-74
2023/03/03 07:35:48;;;;;;;40.23;26.70;;;5.90;99.90;;;;;;4985083;28;20408;-72
2023/03/03 07:38:16;;;;;;;39.57;27.33;;;5.90;99.90;;;;;;4985288;28;20424;-75
2023/03/03 07:40:48;;;;;;;36.03;26.70;;;5.70;99.90;;;;;;4984899;28;20723;-72
2023/03/03 07:43:36;;;;;;;37.90;26.57;;;5.90;99.90;;;;;;4984778;28;20444;-73
2023/03/03 07:46:35;;;;;;;34.17;26.20;;;5.70;99.90;;;;;;4984741;28;20448;-74
2023/03/03 07:49:09;;;;;;;35.00;25.67;;;5.80;99.90;;;;;;4984663;28;20489;-73
2023/03/03 07:51:41;;;;;;;37.33;26.60;;;6.00;99.90;;;;;;4967157;28;20523;-72
2023/03/03 07:54:16;;;;;;;37.67;27.23;;;6.40;99.90;;;;;;4984406;28;20538;-73
2023/03/03 07:56:42;;;;;;;39.20;29.60;;;6.50;99.90;;;;;;4983649;28;20438;-74
2023/03/03 07:59:23;;;;;;;36.47;26.20;;;6.40;99.90;;;;;;4966729;28;20658;-72
2023/03/03 08:01:57;;;;;;;33.37;25.43;;;6.30;99.90;;;;;;4983594;28;20177;-72
2023/03/03 08:04:41;;;;;;;38.20;27.20;;;6.00;99.90;;;;;;4983845;28;20495;-74
2023/03/03 08:07:17;;;;;;;39.00;26.33;;;5.70;99.90;;;;;;4967108;28;20424;-73
2023/03/03 08:09:50;;;;;;;33.60;25.53;;;5.80;99.90;;;;;;4984168;28;20453;-72
2023/03/03 08:12:40;;;;;;;32.60;23.50;;;6.00;99.90;;;;;;4984066;28;20427;-72
2023/03/03 08:15:30;;;;;;;35.90;25.23;;;6.00;99.90;;;;;;4984513;28;20548;-73
2023/03/03 08:17:55;;;;;;;35.67;25.10;;;5.50;99.90;;;;;;4984336;28;20779;-73
2023/03/03 08:20:46;;;;;;;38.57;26.83;;;5.50;99.90;;;;;;4983806;28;20507;-74
2023/03/03 08:23:12;;;;;;;35.00;24.50;;;5.70;99.90;;;;;;4984021;28;20206;-73
2023/03/03 08:25:41;;;;;;;36.43;27.50;;;6.00;99.90;;;;;;4966386;28;20513;-72
2023/03/03 08:28:06;;;;;;;35.30;27.00;;;6.10;99.90;;;;;;4983370;28;20448;-74
2023/03/03 08:30:32;;;;;;;36.93;27.60;;;6.40;99.90;;;;;;4983533;28;20452;-74
2023/03/03 08:32:58;;;;;;;32.47;24.40;;;6.60;99.90;;;;;;4983913;28;20426;-71
2023/03/03 08:35:24;;;;;;;34.50;25.97;;;6.50;99.90;;;;;;4983703;28;20787;-73
2023/03/03 08:37:50;;;;;;;38.87;28.07;;;6.30;99.90;;;;;;4983676;28;20602;-72
2023/03/03 08:40:15;;;;;;;34.20;26.30;;;6.20;99.90;;;;;;4966552;28;20187;-72
2023/03/03 08:42:41;;;;;;;40.50;28.20;;;6.20;99.90;;;;;;4966417;28;20433;-72
2023/03/03 08:45:07;;;;;;;39.00;26.50;;;6.00;99.90;;;;;;4984354;28;20635;-73
2023/03/03 08:47:32;;;;;;;37.73;28.57;;;6.00;99.90;;;;;;4983654;28;20184;-73
2023/03/03 08:49:58;;;;;;;36.23;27.67;;;5.90;99.90;;;;;;4983993;28;20332;-74
2023/03/03 08:52:23;;;;;;;37.70;27.23;;;6.10;99.90;;;;;;4983754;28;20308;-73
2023/03/03 08:54:49;;;;;;;37.53;28.70;;;5.90;99.90;;;;;;4984004;28;20195;-73
2023/03/03 08:57:15;;;;;;;41.60;28.27;;;5.90;99.90;;;;;;4983308;28;20176;-73
2023/03/03 08:59:40;;;;;;;36.57;27.00;;;6.30;99.90;;;;;;4983860;28;20597;-72
2023/03/03 09:02:07;;;;;;;35.03;26.60;;;6.60;99.90;;;;;;4983299;28;20213;-72
2023/03/03 09:04:32;;;;;;;34.20;26.13;;;6.70;99.90;;;;;;4983306;28;20667;-74
2023/03/03 09:06:58;;;;;;;42.20;29.03;;;6.50;99.90;;;;;;4983665;28;20436;-73
2023/03/03 09:09:24;;;;;;;37.80;27.33;;;6.00;99.90;;;;;;4983412;28;20654;-72
2023/03/03 09:11:52;;;;;;;36.93;28.33;;;6.10;99.90;;;;;;4965999;28;20200;-72
2023/03/03 09:14:19;;;;;;;36.17;28.40;;;6.10;99.90;;;;;;4983416;28;20218;-73
2023/03/03 09:16:52;;;;;;;36.90;28.03;;;6.20;99.90;;;;;;4983002;28;20423;-71
2023/03/03 09:19:21;;;;;;;36.87;28.10;;;6.40;99.90;;;;;;4983449;28;20416;-73
2023/03/03 09:21:47;;;;;;;36.43;27.53;;;6.50;99.90;;;;;;4983507;28;20467;-73
2023/03/03 09:24:27;;;;;;;33.93;24.70;;;6.60;99.90;;;;;;4983323;28;20444;-74
2023/03/03 09:26:53;;;;;;;34.87;26.37;;;7.00;99.90;;;;;;4983444;28;20497;-71
2023/03/03 09:29:34;;;;;;;36.73;27.73;;;6.90;99.90;;;;;;4983982;28;20472;-72
2023/03/03 09:32:20;;;;;;;37.27;27.77;;;7.30;99.90;;;;;;4983589;28;20409;-72
2023/03/03 09:34:46;;;;;;;35.40;29.60;;;7.70;99.90;;;;;;4983880;28;20802;-72
2023/03/03 09:37:16;;;;;;;34.27;27.70;;;7.60;99.90;;;;;;4983519;28;20803;-72
2023/03/03 09:39:43;;;;;;;33.10;25.10;;;7.70;99.90;;;;;;4983515;28;20964;-75
2023/03/03 09:42:36;;;;;;;36.13;27.20;;;8.00;99.90;;;;;;4987156;28;20905;-74
2023/03/03 09:45:25;;;;;;;34.93;27.63;;;8.00;99.90;;;;;;4987041;28;20416;-72
2023/03/03 09:48:11;;;;;;;36.00;26.00;;;8.00;99.90;;;;;;4986768;28;20416;-72
2023/03/03 09:50:42;;;;;;;34.70;27.53;;;8.50;99.90;;;;;;4986727;28;20874;-73
2023/03/03 09:53:16;;;;;;;37.43;29.50;;;8.80;99.90;;;;;;4986195;28;20607;-72
2023/03/03 09:56:12;;;;;;;39.27;29.03;;;8.60;99.90;;;;;;4986223;28;20423;-75
2023/03/03 09:58:52;;;;;;;41.70;30.33;;;8.80;99.90;;;;;;4986727;28;20447;-72
2023/03/03 10:01:27;;;;;;;37.90;27.90;;;8.60;99.90;;;;;;4986343;28;20463;-73
2023/03/03 10:04:14;;;;;;;36.70;28.10;;;8.30;99.90;;;;;;4986803;28;20819;-73
2023/03/03 10:06:50;;;;;;;36.80;28.10;;;8.30;99.90;;;;;;4969311;28;20831;-73
2023/03/03 10:09:36;;;;;;;35.00;27.80;;;8.40;99.90;;;;;;4986713;28;20448;-72
2023/03/03 10:12:08;;;;;;;35.70;28.10;;;8.40;99.90;;;;;;4986163;28;20432;-72
2023/03/03 10:14:56;;;;;;;38.40;27.67;;;8.50;99.90;;;;;;4986783;28;20488;-71
2023/03/03 10:18:12;;;;;;;39.30;28.60;;;8.20;99.90;;;;;;4986195;28;20794;-72
2023/03/03 10:21:01;;;;;;;33.47;26.90;;;8.90;99.90;;;;;;4953350;28;20470;-72
2023/03/03 10:23:36;;;;;;;31.23;25.60;;;9.30;99.90;;;;;;4986470;28;20535;-72
2023/03/03 10:26:14;;;;;;;31.50;27.00;;;9.40;99.90;;;;;;4986161;28;20414;-72
2023/03/03 10:28:57;;;;;;;32.13;24.90;;;9.10;99.90;;;;;;4968455;28;20423;-74
2023/03/03 10:31:35;;;;;;;31.50;26.07;;;8.80;99.90;;;;;;4986291;28;20419;-75
2023/03/03 10:34:06;;;;;;;31.07;24.80;;;9.00;99.90;;;;;;4986423;28;20477;-73
2023/03/03 10:36:43;;;;;;;33.60;26.13;;;9.40;99.90;;;;;;4986377;28;20408;-73
2023/03/03 10:39:24;;;;;;;37.30;27.87;;;9.60;99.90;;;;;;4987228;28;20416;-73
2023/03/03 10:42:14;;;;;;;32.70;26.77;;;9.10;99.90;;;;;;4986072;28;20400;-72
2023/03/03 10:45:09;;;;;;;36.37;28.57;;;8.80;99.90;;;;;;4968567;28;20436;-71
2023/03/03 10:47:56;;;;;;;37.83;28.83;;;8.80;99.90;;;;;;4986094;28;20421;-74
2023/03/03 10:50:53;;;;;;;32.97;28.73;;;9.00;99.90;;;;;;4986225;28;20940;-72
2023/03/03 10:53:33;;;;;;;38.07;27.83;;;9.40;99.90;;;;;;4985757;28;20442;-76
2023/03/03 10:56:22;;;;;;;33.43;27.80;;;9.30;99.90;;;;;;4985959;28;20510;-73
2023/03/03 10:59:05;;;;;;;31.30;26.80;;;9.70;99.90;;;;;;4968215;28;20797;-71
2023/03/03 11:01:45;;;;;;;33.33;28.00;;;9.20;99.90;;;;;;4985549;28;20412;-72
2023/03/03 11:04:24;;;;;;;33.80;28.33;;;9.50;99.90;;;;;;4985539;28;20974;-74
2023/03/03 11:07:12;;;;;;;36.10;27.30;;;9.80;99.70;;;;;;4985570;28;20840;-72
2023/03/03 11:10:02;;;;;;;36.23;29.20;;;9.80;99.90;;;;;;4985488;28;20435;-74
2023/03/03 11:12:46;;;;;;;31.37;26.13;;;9.70;99.90;;;;;;4985686;28;20420;-74
2023/03/03 11:15:30;;;;;;;37.37;27.63;;;9.30;99.90;;;;;;4968187;28;20467;-73
2023/03/03 11:18:23;;;;;;;35.03;28.47;;;9.40;99.90;;;;;;4985921;28;20443;-72
2023/03/03 11:21:01;;;;;;;36.10;29.37;;;9.70;99.90;;;;;;4985968;28;20417;-73
2023/03/03 11:23:52;;;;;;;32.63;26.20;;;10.10;98.90;;;;;;4985614;28;21167;-75
2023/03/03 11:26:30;;;;;;;34.57;27.93;;;10.40;98.70;;;;;;4985498;28;21014;-74
2023/03/03 11:29:01;;;;;;;33.60;28.10;;;10.50;98.80;;;;;;4985394;28;20981;-74
2023/03/03 11:31:41;;;;;;;35.53;28.97;;;10.40;98.50;;;;;;4985094;28;20841;-71
2023/03/03 11:34:34;;;;;;;32.70;28.37;;;10.10;98.90;;;;;;4967498;28;21386;-72
2023/03/03 11:37:11;;;;;;;33.73;27.67;;;10.10;99.00;;;;;;4985232;28;20421;-75
2023/03/03 11:39:37;;;;;;;35.33;28.80;;;9.70;99.80;;;;;;4985252;28;20427;-74
2023/03/03 11:42:06;;;;;;;37.07;29.80;;;9.50;99.90;;;;;;4984695;28;20416;-72
2023/03/03 11:44:44;;;;;;;35.37;28.33;;;9.00;99.90;;;;;;4985138;28;20482;-72
2023/03/03 11:47:22;;;;;;;35.53;27.57;;;9.30;99.90;;;;;;4984677;28;20955;-73
2023/03/03 11:49:55;;;;;;;35.37;29.20;;;9.70;99.90;;;;;;4984005;28;20404;-73
2023/03/03 11:52:23;;;;;;;35.90;27.13;;;9.70;99.90;;;;;;4984720;28;20442;-72
2023/03/03 11:55:01;;;;;;;33.57;28.00;;;9.80;99.50;;;;;;4984741;28;20826;-74
2023/03/03 11:57:59;;;;;;;33.17;27.17;;;9.70;99.70;;;;;;4984785;28;20425;-72
2023/03/03 12:00:40;;;;;;;36.20;27.67;;;9.90;99.90;;;;;;4981256;28;20430;-72
2023/03/03 12:03:34;;;;;;;37.50;28.27;;;10.00;98.80;;;;;;4983919;28;20510;-73
2023/03/03 12:06:23;;;;;;;32.50;26.50;;;10.40;98.50;;;;;;4984190;28;20414;-76
2023/03/03 12:09:06;;;;;;;30.40;26.23;;;10.60;97.90;;;;;;4984558;28;20752;-73
2023/03/03 12:11:51;;;;;;;30.00;25.57;;;11.30;96.80;;;;;;4984402;28;20788;-73
2023/03/03 12:14:43;;;;;;;31.47;26.23;;;12.30;95.80;;;;;;4984597;28;20478;-72
2023/03/03 12:17:38;;;;;;;29.93;26.70;;;13.90;93.30;;;;;;4984248;28;20415;-73
2023/03/03 12:20:25;;;;;;;32.00;26.87;;;15.30;89.80;;;;;;4983983;28;20468;-75
2023/03/03 12:23:07;;;;;;;33.47;27.30;;;14.80;87.30;;;;;;4983937;28;20497;-73
2023/03/03 12:25:41;;;;;;;32.87;25.80;;;15.80;85.70;;;;;;4984274;28;20431;-74
2023/03/03 12:28:16;;;;;;;31.17;25.63;;;16.00;83.90;;;;;;4984268;28;20458;-74
2023/03/03 12:30:54;;;;;;;33.90;26.00;;;17.50;78.70;;;;;;4984398;28;20403;-74
2023/03/03 12:33:44;;;;;;;34.33;27.40;;;17.90;74.20;;;;;;4966139;28;20454;-73
2023/03/03 12:36:21;;;;;;;29.77;25.07;;;17.00;74.00;;;;;;4984165;28;20412;-77
2023/03/03 12:38:59;;;;;;;29.80;26.57;;;16.70;75.50;;;;;;4984440;28;20873;-73
2023/03/03 12:41:35;;;;;;;33.33;27.73;;;16.40;74.00;;;;;;4983915;28;20407;-74
2023/03/03 12:44:15;;;;;;;32.43;26.17;;;16.20;74.20;;;;;;4984398;28;21066;-74
2023/03/03 12:46:56;;;;;;;28.87;25.60;;;18.00;71.60;;;;;;4966666;28;20423;-74
2023/03/03 12:49:35;;;;;;;31.03;26.90;;;18.90;68.00;;;;;;4984206;28;20412;-74
2023/03/03 12:52:20;;;;;;;28.57;25.67;;;18.00;67.50;;;;;;4983925;28;20422;-73
2023/03/03 12:55:00;;;;;;;28.57;25.47;;;16.70;69.80;;;;;;4983630;28;20539;-75
2023/03/03 12:57:53;;;;;;;26.73;23.30;;;16.30;71.60;;;;;;4983449;28;20977;-73
2023/03/03 13:00:46;;;;;;;25.97;23.27;;;17.50;70.50;;;;;;4984164;28;20422;-75
2023/03/03 13:03:28;;;;;;;28.10;23.77;;;18.40;67.30;;;;;;4983672;28;20769;-74